Terminal Aerodrome Forecast
Issued by NWS

Home | Current Version | Previous Version | Text Only | Print | Product List | Glossary On
Versions: 1 2 3 4 5 6 7 8 9 10 11 12 13 14 15 16 17
000
FTUS44 KLIX 221737
TAFMCB
TAF
KMCB 221737Z 2218/2318 32006KT P6SM SCT030
     FM230100 VRB03KT P6SM SKC
     FM230800 VRB03KT 5SM BR BKN015
      TEMPO 2309/2313 2SM BR BKN015
     FM231500 14006KT P6SM SCT030=

USA.gov is the U.S. government's official web portal to all federal, state and local government web resources and services.